createdAt,value
2022-10-14T00:00:35.829Z,98269.00
2022-10-14T00:03:02.181Z,98266.22
2022-10-14T00:05:28.559Z,98271.00
2022-10-14T00:07:54.929Z,98266.78
2022-10-14T00:10:21.256Z,98267.81
2022-10-14T00:12:47.605Z,98262.09
2022-10-14T00:15:14.001Z,98254.41
2022-10-14T00:17:40.325Z,98265.88
2022-10-14T00:20:06.900Z,98260.41
2022-10-14T00:22:33.206Z,98254.41
2022-10-14T00:24:59.549Z,98257.97
2022-10-14T00:27:25.885Z,98253.81
2022-10-14T00:29:52.204Z,98261.03
2022-10-14T00:32:18.538Z,98260.97
2022-10-14T00:34:44.897Z,98258.19
2022-10-14T00:37:11.248Z,98258.88
2022-10-14T00:39:37.601Z,98262.19
2022-10-14T00:42:04.021Z,98270.72
2022-10-14T00:44:30.306Z,98259.06
2022-10-14T00:46:56.635Z,98263.81
2022-10-14T00:49:22.926Z,98262.28
2022-10-14T00:51:53.347Z,98266.69
2022-10-14T00:54:20.962Z,98256.13
2022-10-14T00:56:47.589Z,98266.09
2022-10-14T00:59:13.945Z,98268.28
2022-10-14T01:01:40.488Z,98263.75
2022-10-14T01:04:06.820Z,98261.94
2022-10-14T01:06:52.148Z,98258.44
2022-10-14T01:09:35.230Z,98256.00
2022-10-14T01:12:35.350Z,98266.69
2022-10-14T01:15:07.699Z,98265.59
2022-10-14T01:17:39.423Z,98259.06
2022-10-14T01:20:05.764Z,98259.59
2022-10-14T01:22:35.650Z,98263.53
2022-10-14T01:25:24.331Z,98258.06
2022-10-14T01:28:09.528Z,98258.88
2022-10-14T01:30:59.315Z,98259.69
2022-10-14T01:33:26.862Z,98254.13
2022-10-14T01:35:55.965Z,98257.72
2022-10-14T01:38:35.924Z,98254.47
2022-10-14T01:41:11.832Z,98251.63
2022-10-14T01:43:38.187Z,98251.25
2022-10-14T01:46:04.866Z,98251.34
2022-10-14T01:48:32.324Z,98248.84
2022-10-14T01:50:59.253Z,98239.50
2022-10-14T01:53:26.205Z,98236.38
2022-10-14T01:55:53.061Z,98238.06
2022-10-14T01:58:19.384Z,98237.44
2022-10-14T02:00:47.882Z,98225.06
2022-10-14T02:03:14.260Z,98231.06
2022-10-14T02:05:47.694Z,98228.03
2022-10-14T02:08:18.067Z,98222.09
2022-10-14T02:11:02.176Z,98224.00
2022-10-14T02:13:55.163Z,98227.94
2022-10-14T02:16:47.536Z,98223.53
2022-10-14T02:19:20.071Z,98218.88
2022-10-14T02:21:46.898Z,98229.72
2022-10-14T02:24:20.384Z,98224.25
2022-10-14T02:26:47.460Z,98231.97
2022-10-14T02:29:13.789Z,98226.59
2022-10-14T02:31:40.774Z,98230.81
2022-10-14T02:34:07.396Z,98217.44
2022-10-14T02:36:34.119Z,98221.47
2022-10-14T02:39:00.607Z,98224.97
2022-10-14T02:41:30.236Z,98222.13
2022-10-14T02:43:56.571Z,98219.06
2022-10-14T02:46:22.939Z,98222.72
2022-10-14T02:48:49.583Z,98214.97
2022-10-14T02:51:16.176Z,98220.66
2022-10-14T02:53:42.771Z,98211.97
2022-10-14T02:56:09.162Z,98208.84
2022-10-14T02:58:35.474Z,98205.69
2022-10-14T03:01:01.869Z,98213.09
2022-10-14T03:03:28.199Z,98204.22
2022-10-14T03:05:54.548Z,98202.56
2022-10-14T03:08:20.885Z,98202.69
2022-10-14T03:10:47.923Z,98203.00
2022-10-14T03:13:14.414Z,98196.09
2022-10-14T03:15:40.811Z,98195.28
2022-10-14T03:18:07.121Z,98196.81
2022-10-14T03:20:33.466Z,98183.19
2022-10-14T03:22:59.795Z,98188.03
2022-10-14T03:25:26.236Z,98188.84
2022-10-14T03:27:52.578Z,98184.97
2022-10-14T03:30:18.920Z,98188.94
2022-10-14T03:32:45.245Z,98184.91
2022-10-14T03:35:11.640Z,98189.38
2022-10-14T03:37:37.972Z,98179.25
2022-10-14T03:40:04.466Z,98190.38
2022-10-14T03:42:30.777Z,98186.50
2022-10-14T03:44:57.108Z,98184.81
2022-10-14T03:47:23.451Z,98189.19
2022-10-14T03:49:49.816Z,98184.16
2022-10-14T03:52:16.139Z,98193.84
2022-10-14T03:54:42.696Z,98193.03
2022-10-14T03:57:09.445Z,98189.91
2022-10-14T03:59:35.814Z,98188.28
2022-10-14T04:02:02.202Z,98188.28
2022-10-14T04:04:28.577Z,98189.91
2022-10-14T04:06:54.998Z,98194.66
2022-10-14T04:09:21.327Z,98184.25
2022-10-14T04:11:47.653Z,98189.47
2022-10-14T04:14:13.969Z,98186.81
2022-10-14T04:16:40.321Z,98192.31
2022-10-14T04:19:06.727Z,98197.13
2022-10-14T04:21:33.074Z,98187.53
2022-10-14T04:23:59.453Z,98188.34
2022-10-14T04:26:25.813Z,98187.13
2022-10-14T04:28:52.198Z,98183.09
2022-10-14T04:31:18.582Z,98168.75
2022-10-14T04:33:44.895Z,98169.09
2022-10-14T04:36:11.240Z,98177.09
2022-10-14T04:38:37.567Z,98178.69
2022-10-14T04:41:03.909Z,98176.91
2022-10-14T04:43:30.261Z,98175.56
2022-10-14T04:45:56.604Z,98169.09
2022-10-14T04:48:30.266Z,98173.94
2022-10-14T04:50:56.675Z,98164.44
2022-10-14T04:53:23.000Z,98170.81
2022-10-14T04:55:49.686Z,98165.88
2022-10-14T04:58:16.655Z,98168.06
2022-10-14T05:00:43.036Z,98175.16
2022-10-14T05:03:09.364Z,98173.63
2022-10-14T05:05:35.712Z,98177.50
2022-10-14T05:08:02.122Z,98180.06
2022-10-14T05:10:28.920Z,98175.47
2022-10-14T05:12:55.245Z,98169.56
2022-10-14T05:15:21.678Z,98178.97
2022-10-14T05:17:48.079Z,98175.91
2022-10-14T05:20:14.511Z,98175.38
2022-10-14T05:22:40.975Z,98170.63
2022-10-14T05:25:07.485Z,98178.09
2022-10-14T05:27:33.848Z,98171.28
2022-10-14T05:30:00.179Z,98171.81
2022-10-14T05:32:26.509Z,98178.25
2022-10-14T05:34:52.919Z,98170.72
2022-10-14T05:37:19.291Z,98173.06
2022-10-14T05:39:45.608Z,98170.63
2022-10-14T05:42:11.937Z,98172.59
2022-10-14T05:44:38.318Z,98169.91
2022-10-14T05:47:04.674Z,98173.13
2022-10-14T05:49:31.009Z,98164.88
2022-10-14T05:51:57.341Z,98164.78
2022-10-14T05:54:23.688Z,98165.16
2022-10-14T05:56:50.031Z,98166.41
2022-10-14T05:59:16.409Z,98159.31
2022-10-14T06:01:43.669Z,98158.78
2022-10-14T06:04:13.258Z,98163.72
2022-10-14T06:06:39.611Z,98164.50
2022-10-14T06:09:11.037Z,98166.41
2022-10-14T06:11:37.828Z,98170.50
2022-10-14T06:14:04.765Z,98168.38
2022-10-14T06:16:31.132Z,98158.94
2022-10-14T06:18:57.880Z,98160.25
2022-10-14T06:21:24.433Z,98160.47
2022-10-14T06:23:50.810Z,98155.38
2022-10-14T06:26:17.168Z,98148.31
2022-10-14T06:28:43.684Z,98154.56
2022-10-14T06:31:10.091Z,98158.78
2022-10-14T06:33:36.418Z,98150.44
2022-10-14T06:36:03.240Z,98147.75
2022-10-14T06:38:29.558Z,98139.97
2022-10-14T06:40:55.877Z,98148.03
2022-10-14T06:43:22.254Z,98147.59
2022-10-14T06:45:48.862Z,98150.81
2022-10-14T06:48:15.284Z,98149.28
2022-10-14T06:50:41.768Z,98148.09
2022-10-14T06:53:08.662Z,98152.50
2022-10-14T06:55:34.990Z,98149.41
2022-10-14T06:58:01.314Z,98155.19
2022-10-14T07:00:27.627Z,98152.06
2022-10-14T07:02:53.975Z,98148.19
2022-10-14T07:05:20.301Z,98147.66
2022-10-14T07:07:46.652Z,98144.16
2022-10-14T07:10:13.001Z,98139.97
2022-10-14T07:12:41.774Z,98133.81
2022-10-14T07:15:08.478Z,98132.28
2022-10-14T07:17:34.808Z,98128.97
2022-10-14T07:20:01.131Z,98131.81
2022-10-14T07:22:27.491Z,98130.78
2022-10-14T07:24:53.876Z,98125.97
2022-10-14T07:27:20.836Z,98131.59
2022-10-14T07:29:47.479Z,98133.19
2022-10-14T07:32:13.799Z,98128.97
2022-10-14T07:34:40.208Z,98123.41
2022-10-14T07:37:06.540Z,98136.72
2022-10-14T07:39:33.879Z,98124.94
2022-10-14T07:42:00.258Z,98122.59
2022-10-14T07:44:27.506Z,98122.16
2022-10-14T07:46:54.120Z,98122.53
2022-10-14T07:49:20.552Z,98127.34
2022-10-14T07:51:46.962Z,98125.00
2022-10-14T07:54:20.831Z,98116.41
2022-10-14T07:56:49.203Z,98115.75
2022-10-14T07:59:15.817Z,98118.41
2022-10-14T08:01:43.009Z,98112.16
2022-10-14T08:04:10.654Z,98106.75
2022-10-14T08:06:36.987Z,98108.19
2022-10-14T08:09:06.491Z,98112.59
2022-10-14T08:11:33.006Z,98107.13
2022-10-14T08:13:59.430Z,98103.88
2022-10-14T08:16:26.719Z,98101.53
2022-10-14T08:18:53.208Z,98105.75
2022-10-14T08:21:19.833Z,98107.53
2022-10-14T08:23:47.314Z,98101.44
2022-10-14T08:26:33.122Z,98097.84
2022-10-14T08:28:59.986Z,98090.31
2022-10-14T08:31:26.337Z,98090.69
2022-10-14T08:33:52.835Z,98094.25
2022-10-14T08:36:19.479Z,98091.19
2022-10-14T08:38:46.039Z,98097.22
2022-10-14T08:41:12.346Z,98083.03
2022-10-14T08:43:42.562Z,98079.25
2022-10-14T08:46:25.176Z,98073.59
2022-10-14T08:48:51.719Z,98066.84
2022-10-14T08:51:18.210Z,98077.13
2022-10-14T08:53:51.913Z,98074.03
2022-10-14T08:56:18.252Z,98070.81
2022-10-14T08:58:49.131Z,98075.88
2022-10-14T09:01:24.655Z,98075.78
2022-10-14T09:03:57.736Z,98080.09
2022-10-14T09:06:28.435Z,98077.19
2022-10-14T09:08:55.921Z,98081.53
2022-10-14T09:11:22.315Z,98081.06
2022-10-14T09:13:52.168Z,98076.50
2022-10-14T09:16:18.527Z,98077.03
2022-10-14T09:18:54.719Z,98069.66
2022-10-14T09:21:40.406Z,98067.66
2022-10-14T09:24:11.095Z,98072.38
2022-10-14T09:26:44.158Z,98078.34
2022-10-14T09:29:16.558Z,98073.59
2022-10-14T09:31:42.940Z,98075.28
2022-10-14T09:34:10.604Z,98073.34
2022-10-14T09:36:36.954Z,98067.09
2022-10-14T09:39:06.152Z,98060.00
2022-10-14T09:41:33.296Z,98068.56
2022-10-14T09:44:21.211Z,98060.66
2022-10-14T09:47:02.245Z,98060.13
2022-10-14T09:49:39.285Z,98062.22
2022-10-14T09:52:05.920Z,98061.72
2022-10-14T09:54:32.422Z,98054.91
2022-10-14T09:57:02.641Z,98054.75
2022-10-14T09:59:29.338Z,98041.31
2022-10-14T10:01:57.524Z,98040.19
2022-10-14T10:04:29.964Z,98038.72
2022-10-14T10:06:56.399Z,98031.81
2022-10-14T10:09:22.788Z,98027.41
2022-10-14T10:11:49.192Z,98023.97
2022-10-14T10:14:21.495Z,98022.00
2022-10-14T10:16:48.130Z,98012.19
2022-10-14T10:19:26.842Z,98015.78
2022-10-14T10:21:53.487Z,97997.09
2022-10-14T10:24:23.019Z,98002.78
2022-10-14T10:26:51.311Z,97997.25
2022-10-14T10:29:24.626Z,97988.59
2022-10-14T10:31:54.165Z,97992.19
2022-10-14T10:34:32.866Z,97981.13
2022-10-14T10:37:19.657Z,97988.78
2022-10-14T10:39:55.279Z,97981.88
2022-10-14T10:42:30.812Z,97981.25
2022-10-14T10:45:16.428Z,97978.16
2022-10-14T10:47:45.529Z,97970.97
2022-10-14T10:50:22.292Z,97966.16
2022-10-14T10:52:52.039Z,97967.63
2022-10-14T10:58:19.209Z,97959.38
2022-10-14T11:00:47.368Z,97951.34
2022-10-14T11:03:27.368Z,97950.53
2022-10-14T11:05:53.676Z,97943.00
2022-10-14T11:08:41.825Z,97944.97
2022-10-14T11:11:33.444Z,97933.94
2022-10-14T11:13:59.769Z,97944.75
2022-10-14T11:16:28.419Z,97932.38
2022-10-14T11:18:58.045Z,97929.09
2022-10-14T11:21:24.375Z,97925.13
2022-10-14T11:23:54.543Z,97916.41
2022-10-14T11:26:24.974Z,97917.81
2022-10-14T11:28:51.524Z,97912.34
2022-10-14T11:31:17.874Z,97907.53
2022-10-14T11:33:47.885Z,97901.19
2022-10-14T11:36:14.221Z,97901.22
2022-10-14T11:38:49.869Z,97902.00
2022-10-14T11:41:19.187Z,97909.91
2022-10-14T11:44:04.085Z,97900.34
2022-10-14T11:46:32.753Z,97893.97
2022-10-14T11:49:04.115Z,97887.97
2022-10-14T11:51:37.555Z,97882.47
2022-10-14T11:54:05.729Z,97879.69
2022-10-14T11:56:42.813Z,97894.50
2022-10-14T11:59:16.897Z,97883.38
2022-10-14T12:01:43.689Z,97882.97
2022-10-14T12:04:11.075Z,97880.56
2022-10-14T12:06:38.346Z,97877.34
2022-10-14T12:09:24.994Z,97874.56
2022-10-14T12:11:52.665Z,97876.19
2022-10-14T12:14:19.982Z,97865.38
2022-10-14T12:16:46.396Z,97860.19
2022-10-14T12:19:13.037Z,97855.03
2022-10-14T12:21:46.802Z,97861.88
2022-10-14T12:24:19.667Z,97862.31
2022-10-14T12:27:04.845Z,97859.09
2022-10-14T12:29:31.873Z,97861.09
2022-10-14T12:32:08.475Z,97863.06
2022-10-14T12:34:38.884Z,97855.09
2022-10-14T12:37:27.277Z,97845.44
2022-10-14T12:40:17.727Z,97844.63
2022-10-14T12:42:44.160Z,97826.66
2022-10-14T12:45:17.703Z,97839.84
2022-10-14T12:47:44.124Z,97833.50
2022-10-14T12:50:17.640Z,97832.25
2022-10-14T12:52:44.892Z,97828.63
2022-10-14T12:55:18.813Z,97821.84
2022-10-14T12:57:45.427Z,97817.84
2022-10-14T13:00:27.957Z,97827.41
2022-10-14T13:02:59.532Z,97828.22
2022-10-14T13:05:33.974Z,97816.63
2022-10-14T13:08:11.898Z,97816.25
2022-10-14T13:10:43.246Z,97814.66
2022-10-14T13:13:38.213Z,97806.28
2022-10-14T13:16:30.843Z,97804.66
2022-10-14T13:19:00.426Z,97798.66
2022-10-14T13:21:39.029Z,97798.69
2022-10-14T13:24:06.357Z,97795.88
2022-10-14T13:26:38.995Z,97795.06
2022-10-14T13:29:20.689Z,97788.69
2022-10-14T13:31:49.554Z,97778.72
2022-10-14T13:34:18.920Z,97778.34
2022-10-14T13:36:53.526Z,97779.13
2022-10-14T13:39:19.857Z,97786.69
2022-10-14T13:41:46.209Z,97775.50
2022-10-14T13:44:12.537Z,97776.31
2022-10-14T13:46:43.171Z,97767.91
2022-10-14T13:49:17.475Z,97779.09
2022-10-14T13:51:55.020Z,97784.69
2022-10-14T13:54:22.339Z,97782.28
2022-10-14T13:57:19.881Z,97783.88
2022-10-14T14:00:33.156Z,97777.88
2022-10-14T14:02:31.554Z,97771.06
2022-10-14T14:04:58.098Z,97771.88
2022-10-14T14:10:20.019Z,97757.84
2022-10-14T14:12:46.384Z,97753.06
2022-10-14T14:15:25.856Z,97754.25
2022-10-14T14:17:52.878Z,97741.09
2022-10-14T14:20:21.203Z,97731.50
2022-10-14T14:22:47.589Z,97735.50
2022-10-14T14:25:46.494Z,97731.91
2022-10-14T14:28:11.757Z,97722.34
2022-10-14T14:30:38.636Z,97727.94
2022-10-14T14:33:06.906Z,97727.50
2022-10-14T14:35:33.412Z,97718.31
2022-10-14T14:38:00.088Z,97718.34
2022-10-14T14:40:27.452Z,97711.56
2022-10-14T14:42:54.363Z,97708.34
2022-10-14T14:45:37.531Z,97711.94
2022-10-14T14:48:06.996Z,97697.13
2022-10-14T14:50:42.777Z,97695.53
2022-10-14T14:53:13.859Z,97691.53
2022-10-14T14:55:41.792Z,97698.31
2022-10-14T14:58:20.518Z,97689.53
2022-10-14T15:00:46.869Z,97692.31
2022-10-14T15:03:13.240Z,97691.09
2022-10-14T15:05:39.559Z,97700.28
2022-10-14T15:08:05.907Z,97685.91
2022-10-14T15:10:32.369Z,97701.50
2022-10-14T15:12:59.336Z,97691.91
2022-10-14T15:15:26.896Z,97687.13
2022-10-14T15:18:12.001Z,97684.72
2022-10-14T15:20:38.330Z,97687.06
2022-10-14T15:23:23.442Z,97687.06
2022-10-14T15:26:00.221Z,97681.47
2022-10-14T15:28:33.432Z,97689.44
2022-10-14T15:31:03.160Z,97681.47
2022-10-14T15:33:32.049Z,97677.06
2022-10-14T15:35:58.882Z,97675.06
2022-10-14T15:38:25.333Z,97684.22
2022-10-14T15:40:51.686Z,97681.81
2022-10-14T15:43:24.859Z,97680.25
2022-10-14T15:46:11.714Z,97683.84
2022-10-14T15:48:41.681Z,97679.84
2022-10-14T15:51:09.761Z,97671.03
2022-10-14T15:53:36.474Z,97678.19
2022-10-14T15:56:02.789Z,97666.66
2022-10-14T15:58:29.112Z,97665.78
2022-10-14T16:00:55.499Z,97677.38
2022-10-14T16:03:21.867Z,97669.78
2022-10-14T16:05:48.299Z,97663.38
2022-10-14T16:08:15.238Z,97668.97
2022-10-14T16:10:45.088Z,97668.16
2022-10-14T16:13:11.782Z,97659.75
2022-10-14T16:15:47.167Z,97654.97
2022-10-14T16:18:13.665Z,97657.78
2022-10-14T16:20:40.034Z,97658.53
2022-10-14T16:23:06.459Z,97664.09
2022-10-14T16:25:39.841Z,97662.50
2022-10-14T16:28:10.268Z,97660.47
2022-10-14T16:30:37.367Z,97658.06
2022-10-14T16:33:03.985Z,97656.41
2022-10-14T16:35:30.562Z,97664.44
2022-10-14T16:37:56.947Z,97663.66
2022-10-14T16:40:23.912Z,97660.03
2022-10-14T16:42:50.427Z,97660.84
2022-10-14T16:45:17.015Z,97658.84
2022-10-14T16:47:43.718Z,97662.41
2022-10-14T16:50:10.649Z,97662.78
2022-10-14T16:52:56.714Z,97665.13
2022-10-14T16:55:23.485Z,97659.56
2022-10-14T16:57:49.846Z,97663.94
2022-10-14T17:00:16.220Z,97677.88
2022-10-14T17:02:42.584Z,97667.50
2022-10-14T17:05:08.994Z,97661.56
2022-10-14T17:07:35.435Z,97667.50
2022-10-14T17:10:01.793Z,97669.09
2022-10-14T17:12:28.128Z,97672.25
2022-10-14T17:14:54.472Z,97670.66
2022-10-14T17:17:23.740Z,97672.63
2022-10-14T17:19:52.526Z,97666.28
2022-10-14T17:22:20.822Z,97667.50
2022-10-14T17:24:47.928Z,97664.63
2022-10-14T17:27:14.288Z,97667.00
2022-10-14T17:29:40.684Z,97662.25
2022-10-14T17:32:07.026Z,97654.69
2022-10-14T17:34:34.722Z,97657.84
2022-10-14T17:37:01.151Z,97661.03
2022-10-14T17:39:29.439Z,97658.66
2022-10-14T17:41:58.393Z,97663.47
2022-10-14T17:44:24.832Z,97659.06
2022-10-14T17:46:51.169Z,97651.88
2022-10-14T17:49:17.498Z,97637.56
2022-10-14T17:51:44.830Z,97651.91
2022-10-14T17:54:11.309Z,97641.91
2022-10-14T17:56:37.787Z,97635.97
2022-10-14T17:59:05.038Z,97633.97
2022-10-14T18:01:37.071Z,97633.63
2022-10-14T18:04:10.137Z,97634.38
2022-10-14T18:06:37.304Z,97638.38
2022-10-14T18:09:07.412Z,97632.44
2022-10-14T18:12:03.628Z,97634.41
2022-10-14T18:14:24.896Z,97623.63
2022-10-14T18:16:52.317Z,97630.81
2022-10-14T18:19:19.752Z,97630.41
2022-10-14T18:21:46.194Z,97627.63
2022-10-14T18:24:12.845Z,97628.81
2022-10-14T18:26:42.084Z,97639.19
2022-10-14T18:29:08.592Z,97629.63
2022-10-14T18:31:35.317Z,97629.63
2022-10-14T18:34:01.804Z,97630.41
2022-10-14T18:36:29.104Z,97628.38
2022-10-14T18:38:56.052Z,97622.03
2022-10-14T18:41:22.427Z,97620.00
2022-10-14T18:43:48.823Z,97613.31
2022-10-14T18:46:16.132Z,97605.31
2022-10-14T18:48:43.320Z,97601.75
2022-10-14T18:51:09.852Z,97608.47
2022-10-14T18:53:36.397Z,97602.91
2022-10-14T18:56:08.549Z,97603.69
2022-10-14T18:58:38.452Z,97604.13
2022-10-14T19:01:05.412Z,97598.50
2022-10-14T19:03:32.803Z,97601.31
2022-10-14T19:06:01.159Z,97606.13
2022-10-14T19:08:27.877Z,97608.06
2022-10-14T19:11:00.916Z,97603.31
2022-10-14T19:13:27.447Z,97606.88
2022-10-14T19:16:03.562Z,97616.06
2022-10-14T19:18:29.970Z,97614.06
2022-10-14T19:21:03.555Z,97607.69
2022-10-14T19:23:29.887Z,97609.28
2022-10-14T19:25:59.154Z,97608.06
2022-10-14T19:28:25.754Z,97608.84
2022-10-14T19:30:52.187Z,97602.09
2022-10-14T19:33:18.786Z,97600.47
2022-10-14T19:35:50.810Z,97611.22
2022-10-14T19:38:17.139Z,97607.69
2022-10-14T19:40:43.515Z,97612.38
2022-10-14T19:43:09.875Z,97610.75
2022-10-14T19:45:39.816Z,97606.03
2022-10-14T19:48:06.327Z,97608.41
2022-10-14T19:50:32.655Z,97593.72
2022-10-14T19:52:58.993Z,97592.47
2022-10-14T19:55:25.325Z,97602.88
2022-10-14T19:57:56.056Z,97603.25
2022-10-14T20:00:22.860Z,97596.13
2022-10-14T20:02:49.411Z,97582.56
2022-10-14T20:05:17.372Z,97577.00
2022-10-14T20:07:44.042Z,97575.34
2022-10-14T20:10:10.736Z,97567.00
2022-10-14T20:12:37.076Z,97569.34
2022-10-14T20:15:03.661Z,97576.13
2022-10-14T20:17:30.026Z,97561.44
2022-10-14T20:19:56.356Z,97572.16
2022-10-14T20:22:23.337Z,97570.91
2022-10-14T20:24:50.127Z,97581.72
2022-10-14T20:27:16.507Z,97572.13
2022-10-14T20:29:42.898Z,97571.34
2022-10-14T20:32:09.235Z,97568.94
2022-10-14T20:34:35.632Z,97570.91
2022-10-14T20:37:02.109Z,97577.31
2022-10-14T20:39:28.419Z,97570.91
2022-10-14T20:41:54.756Z,97578.91
2022-10-14T20:44:23.890Z,97582.16
2022-10-14T20:46:50.519Z,97574.16
2022-10-14T20:49:16.839Z,97565.75
2022-10-14T20:51:43.256Z,97563.00
2022-10-14T20:54:11.750Z,97568.22
2022-10-14T20:56:38.342Z,97566.19
2022-10-14T20:59:05.624Z,97565.75
2022-10-14T21:01:32.138Z,97561.03
2022-10-14T21:04:00.127Z,97564.69
2022-10-14T21:06:26.445Z,97555.13
2022-10-14T21:08:52.842Z,97559.50
2022-10-14T21:11:20.119Z,97554.66
2022-10-14T21:13:52.209Z,97547.09
2022-10-14T21:16:25.693Z,97543.91
2022-10-14T21:18:56.815Z,97544.34
2022-10-14T21:21:25.243Z,97550.72
2022-10-14T21:23:52.296Z,97555.84
2022-10-14T21:26:18.619Z,97550.31
2022-10-14T21:28:45.016Z,97560.66
2022-10-14T21:31:13.718Z,97554.25
2022-10-14T21:33:43.568Z,97548.19
2022-10-14T21:36:10.869Z,97542.66
2022-10-14T21:38:37.196Z,97540.72
2022-10-14T21:41:03.591Z,97531.91
2022-10-14T21:43:30.271Z,97536.41
2022-10-14T21:45:56.947Z,97540.38
2022-10-14T21:48:23.363Z,97527.97
2022-10-14T21:50:49.700Z,97535.19
2022-10-14T21:53:18.559Z,97534.34
2022-10-14T21:55:45.359Z,97537.53
2022-10-14T21:58:11.718Z,97533.97
2022-10-14T22:00:38.042Z,97535.16
2022-10-14T22:03:04.389Z,97522.88
2022-10-14T22:05:30.828Z,97511.22
2022-10-14T22:07:57.212Z,97520.75
2022-10-14T22:10:42.058Z,97528.34
2022-10-14T22:13:08.442Z,97529.59
2022-10-14T22:15:35.604Z,97524.00
2022-10-14T22:18:02.008Z,97525.16
2022-10-14T22:20:28.322Z,97527.63
2022-10-14T22:22:54.676Z,97522.78
2022-10-14T22:25:21.004Z,97527.63
2022-10-14T22:27:47.330Z,97517.69
2022-10-14T22:30:13.939Z,97519.22
2022-10-14T22:32:40.674Z,97522.75
2022-10-14T22:35:07.353Z,97527.13
2022-10-14T22:37:33.684Z,97529.84
2022-10-14T22:40:00.002Z,97536.59
2022-10-14T22:44:55.380Z,97527.16
2022-10-14T22:47:22.180Z,97532.72
2022-10-14T22:49:48.749Z,97533.91
2022-10-14T22:52:15.066Z,97528.28
2022-10-14T22:54:41.388Z,97532.63
2022-10-14T22:57:07.755Z,97523.06
2022-10-14T22:59:34.152Z,97530.22
2022-10-14T23:02:00.723Z,97521.06
2022-10-14T23:04:27.091Z,97532.56
2022-10-14T23:06:53.575Z,97521.47
2022-10-14T23:09:19.937Z,97533.44
2022-10-14T23:11:46.292Z,97540.13
2022-10-14T23:14:12.978Z,97537.72
2022-10-14T23:16:39.357Z,97534.94
2022-10-14T23:19:05.718Z,97540.88
2022-10-14T23:21:32.827Z,97540.50
2022-10-14T23:23:59.830Z,97543.66
2022-10-14T23:26:27.196Z,97538.84
2022-10-14T23:28:57.517Z,97538.06
2022-10-14T23:31:24.836Z,97540.47
2022-10-14T23:33:53.371Z,97546.06
2022-10-14T23:36:20.342Z,97540.44
2022-10-14T23:38:46.747Z,97535.25
2022-10-14T23:41:13.105Z,97542.56
2022-10-14T23:43:39.717Z,97534.19
2022-10-14T23:46:06.583Z,97532.06
2022-10-14T23:48:33.180Z,97527.66
2022-10-14T23:51:01.944Z,97528.34
2022-10-14T23:53:28.381Z,97525.59
2022-10-14T23:55:54.911Z,97530.00
2022-10-14T23:58:21.415Z,97530.44
